Aviation Digital Data Service (ADDS)

Output produced by METARs form (0239 UTC 22 July 2017)
found at http://www.aviationweather.gov/adds/metars/
 
DRRN 220200Z 24006KT 9999 FEW030CB 30/22 Q1010 TEMPO 06026G38KT 1000 SQ BLDU TSRA
TAF DRRN 212300Z 2200/2306 22008KT 8000 NSC 
     BECMG 2202/2208 09025G45KT 1000 SQ BLDU TSRA BKN015 SCT023CB 
     FM221000 22010KT 8000 SCT015
       
TAF DRZA 212300Z 2200/2224 28008KT 8000 FEW033 
     PROB40 
     TEMPO 2214/2220 VRB25KT 1200 BLDU TSRA SCT030 FEW040CB
       
TAF DRZR 212300Z 2200/2224 08015KT 2500 TSRA BKN015 FEW025CB 
     FM220300 24010KT 8000 FEW015 
     PROB30 
     TEMPO 2215/2220 TS FEW033CB